sensor_id;sensor_type;location;lat;lon;timestamp;P1;durP1;ratioP1;P2;durP2;ratioP2
20012;SDS011;76844;42.852;23.042;2024-03-02T00:02:14;50.83;;;31.33;;
20012;SDS011;76844;42.852;23.042;2024-03-02T00:04:44;52.40;;;33.25;;
20012;SDS011;76844;42.852;23.042;2024-03-02T00:07:16;51.03;;;31.92;;
20012;SDS011;76844;42.852;23.042;2024-03-02T00:09:45;57.00;;;35.03;;
20012;SDS011;76844;42.852;23.042;2024-03-02T00:12:15;58.33;;;34.72;;
20012;SDS011;76844;42.852;23.042;2024-03-02T00:14:44;61.72;;;37.53;;
20012;SDS011;76844;42.852;23.042;2024-03-02T00:17:17;65.75;;;38.55;;
20012;SDS011;76844;42.852;23.042;2024-03-02T00:19:53;58.92;;;35.47;;
20012;SDS011;76844;42.852;23.042;2024-03-02T00:22:24;55.92;;;34.22;;
20012;SDS011;76844;42.852;23.042;2024-03-02T00:24:55;54.13;;;33.05;;
20012;SDS011;76844;42.852;23.042;2024-03-02T00:27:24;54.97;;;33.90;;
20012;SDS011;76844;42.852;23.042;2024-03-02T00:29:54;50.83;;;32.00;;
20012;SDS011;76844;42.852;23.042;2024-03-02T00:32:24;56.85;;;34.97;;
20012;SDS011;76844;42.852;23.042;2024-03-02T00:34:55;53.85;;;33.53;;
20012;SDS011;76844;42.852;23.042;2024-03-02T00:37:26;54.63;;;32.72;;
20012;SDS011;76844;42.852;23.042;2024-03-02T00:39:56;51.20;;;31.23;;
20012;SDS011;76844;42.852;23.042;2024-03-02T00:42:25;45.92;;;29.17;;
20012;SDS011;76844;42.852;23.042;2024-03-02T00:44:55;51.75;;;32.15;;
20012;SDS011;76844;42.852;23.042;2024-03-02T00:47:24;51.67;;;32.10;;
20012;SDS011;76844;42.852;23.042;2024-03-02T00:49:53;57.45;;;32.95;;
20012;SDS011;76844;42.852;23.042;2024-03-02T00:52:22;47.05;;;30.08;;
20012;SDS011;76844;42.852;23.042;2024-03-02T00:54:55;57.33;;;33.90;;
20012;SDS011;76844;42.852;23.042;2024-03-02T00:57:26;48.72;;;29.17;;
20012;SDS011;76844;42.852;23.042;2024-03-02T00:59:59;51.33;;;32.53;;
20012;SDS011;76844;42.852;23.042;2024-03-02T01:02:28;44.22;;;29.13;;
20012;SDS011;76844;42.852;23.042;2024-03-02T01:04:58;51.38;;;31.15;;
20012;SDS011;76844;42.852;23.042;2024-03-02T01:07:29;59.75;;;35.35;;
20012;SDS011;76844;42.852;23.042;2024-03-02T01:09:58;61.50;;;36.35;;
20012;SDS011;76844;42.852;23.042;2024-03-02T01:12:28;50.85;;;31.65;;
20012;SDS011;76844;42.852;23.042;2024-03-02T01:14:58;56.13;;;35.20;;
20012;SDS011;76844;42.852;23.042;2024-03-02T01:17:28;61.80;;;37.50;;
20012;SDS011;76844;42.852;23.042;2024-03-02T01:19:58;51.05;;;31.33;;
20012;SDS011;76844;42.852;23.042;2024-03-02T01:22:27;52.53;;;32.15;;
20012;SDS011;76844;42.852;23.042;2024-03-02T01:24:58;47.28;;;28.95;;
20012;SDS011;76844;42.852;23.042;2024-03-02T01:27:28;56.55;;;33.13;;
20012;SDS011;76844;42.852;23.042;2024-03-02T01:29:58;49.92;;;30.45;;
20012;SDS011;76844;42.852;23.042;2024-03-02T01:32:28;53.53;;;32.90;;
20012;SDS011;76844;42.852;23.042;2024-03-02T01:34:57;50.13;;;32.33;;
20012;SDS011;76844;42.852;23.042;2024-03-02T01:37:26;52.13;;;32.88;;
20012;SDS011;76844;42.852;23.042;2024-03-02T01:39:55;57.33;;;34.65;;
20012;SDS011;76844;42.852;23.042;2024-03-02T01:42:28;55.33;;;34.17;;
20012;SDS011;76844;42.852;23.042;2024-03-02T01:44:58;50.88;;;32.85;;
20012;SDS011;76844;42.852;23.042;2024-03-02T01:47:28;54.60;;;33.38;;
20012;SDS011;76844;42.852;23.042;2024-03-02T01:49:58;59.05;;;35.95;;
20012;SDS011;76844;42.852;23.042;2024-03-02T01:52:28;67.65;;;38.55;;
20012;SDS011;76844;42.852;23.042;2024-03-02T01:54:59;66.10;;;38.50;;
20012;SDS011;76844;42.852;23.042;2024-03-02T01:57:29;55.90;;;32.65;;
20012;SDS011;76844;42.852;23.042;2024-03-02T01:59:58;66.55;;;38.90;;
20012;SDS011;76844;42.852;23.042;2024-03-02T02:02:37;67.63;;;39.70;;
20012;SDS011;76844;42.852;23.042;2024-03-02T02:05:07;70.00;;;39.33;;
20012;SDS011;76844;42.852;23.042;2024-03-02T02:07:36;56.92;;;35.72;;
20012;SDS011;76844;42.852;23.042;2024-03-02T02:10:07;57.38;;;35.05;;
20012;SDS011;76844;42.852;23.042;2024-03-02T02:12:37;56.97;;;33.75;;
20012;SDS011;76844;42.852;23.042;2024-03-02T02:15:21;49.90;;;30.60;;
20012;SDS011;76844;42.852;23.042;2024-03-02T02:17:54;69.15;;;39.13;;
20012;SDS011;76844;42.852;23.042;2024-03-02T02:20:43;64.70;;;39.10;;
20012;SDS011;76844;42.852;23.042;2024-03-02T02:23:14;61.10;;;38.35;;
20012;SDS011;76844;42.852;23.042;2024-03-02T02:25:43;60.42;;;36.80;;
20012;SDS011;76844;42.852;23.042;2024-03-02T02:28:13;58.50;;;34.88;;
20012;SDS011;76844;42.852;23.042;2024-03-02T02:30:42;56.75;;;35.05;;
20012;SDS011;76844;42.852;23.042;2024-03-02T02:33:11;57.55;;;35.10;;
20012;SDS011;76844;42.852;23.042;2024-03-02T02:35:41;57.03;;;35.72;;
20012;SDS011;76844;42.852;23.042;2024-03-02T02:38:10;57.05;;;34.53;;
20012;SDS011;76844;42.852;23.042;2024-03-02T02:40:41;68.07;;;40.50;;
20012;SDS011;76844;42.852;23.042;2024-03-02T02:43:10;59.03;;;34.90;;
20012;SDS011;76844;42.852;23.042;2024-03-02T02:45:39;65.20;;;36.33;;
20012;SDS011;76844;42.852;23.042;2024-03-02T02:48:09;60.05;;;34.83;;
20012;SDS011;76844;42.852;23.042;2024-03-02T02:50:38;66.05;;;38.00;;
20012;SDS011;76844;42.852;23.042;2024-03-02T02:53:07;62.95;;;36.15;;
20012;SDS011;76844;42.852;23.042;2024-03-02T02:55:39;55.80;;;34.13;;
20012;SDS011;76844;42.852;23.042;2024-03-02T02:58:10;58.78;;;35.22;;
20012;SDS011;76844;42.852;23.042;2024-03-02T03:00:40;62.33;;;36.45;;
20012;SDS011;76844;42.852;23.042;2024-03-02T03:03:09;52.08;;;30.75;;
20012;SDS011;76844;42.852;23.042;2024-03-02T03:05:38;58.10;;;33.22;;
20012;SDS011;76844;42.852;23.042;2024-03-02T03:08:07;63.75;;;38.45;;
20012;SDS011;76844;42.852;23.042;2024-03-02T03:10:36;104.53;;;61.67;;
20012;SDS011;76844;42.852;23.042;2024-03-02T03:13:07;87.70;;;56.15;;
20012;SDS011;76844;42.852;23.042;2024-03-02T03:15:37;86.88;;;54.63;;
20012;SDS011;76844;42.852;23.042;2024-03-02T03:18:06;86.88;;;57.72;;
20012;SDS011;76844;42.852;23.042;2024-03-02T03:20:37;96.40;;;61.05;;
20012;SDS011;76844;42.852;23.042;2024-03-02T03:23:07;88.40;;;55.72;;
20012;SDS011;76844;42.852;23.042;2024-03-02T03:25:36;77.00;;;48.05;;
20012;SDS011;76844;42.852;23.042;2024-03-02T03:28:06;67.47;;;42.70;;
20012;SDS011;76844;42.852;23.042;2024-03-02T03:30:37;73.22;;;44.47;;
20012;SDS011;76844;42.852;23.042;2024-03-02T03:33:06;66.90;;;40.22;;
20012;SDS011;76844;42.852;23.042;2024-03-02T03:35:36;88.35;;;48.80;;
20012;SDS011;76844;42.852;23.042;2024-03-02T03:38:05;67.30;;;37.20;;
20012;SDS011;76844;42.852;23.042;2024-03-02T03:40:34;64.70;;;39.00;;
20012;SDS011;76844;42.852;23.042;2024-03-02T03:43:04;59.33;;;36.97;;
20012;SDS011;76844;42.852;23.042;2024-03-02T03:45:35;67.15;;;40.20;;
20012;SDS011;76844;42.852;23.042;2024-03-02T03:48:04;71.93;;;40.70;;
20012;SDS011;76844;42.852;23.042;2024-03-02T03:50:34;62.10;;;36.90;;
20012;SDS011;76844;42.852;23.042;2024-03-02T03:53:05;88.38;;;46.28;;
20012;SDS011;76844;42.852;23.042;2024-03-02T03:55:34;66.63;;;38.13;;
20012;SDS011;76844;42.852;23.042;2024-03-02T03:58:03;60.53;;;35.00;;
20012;SDS011;76844;42.852;23.042;2024-03-02T04:00:33;57.35;;;34.05;;
20012;SDS011;76844;42.852;23.042;2024-03-02T04:03:04;68.82;;;40.40;;
20012;SDS011;76844;42.852;23.042;2024-03-02T04:05:33;82.65;;;44.15;;
20012;SDS011;76844;42.852;23.042;2024-03-02T04:08:03;82.88;;;45.28;;
20012;SDS011;76844;42.852;23.042;2024-03-02T04:10:32;76.97;;;42.05;;
20012;SDS011;76844;42.852;23.042;2024-03-02T04:13:02;82.72;;;45.95;;
20012;SDS011;76844;42.852;23.042;2024-03-02T04:15:32;72.55;;;43.35;;
20012;SDS011;76844;42.852;23.042;2024-03-02T04:18:03;57.58;;;34.50;;
20012;SDS011;76844;42.852;23.042;2024-03-02T04:20:33;67.00;;;38.83;;
20012;SDS011;76844;42.852;23.042;2024-03-02T04:23:02;62.42;;;37.17;;
20012;SDS011;76844;42.852;23.042;2024-03-02T04:25:32;68.00;;;37.17;;
20012;SDS011;76844;42.852;23.042;2024-03-02T04:28:01;67.82;;;40.08;;
20012;SDS011;76844;42.852;23.042;2024-03-02T04:30:31;75.43;;;41.63;;
20012;SDS011;76844;42.852;23.042;2024-03-02T04:33:01;88.20;;;48.10;;
20012;SDS011;76844;42.852;23.042;2024-03-02T04:35:33;74.75;;;43.63;;
20012;SDS011;76844;42.852;23.042;2024-03-02T04:38:02;64.22;;;39.67;;
20012;SDS011;76844;42.852;23.042;2024-03-02T04:40:31;69.78;;;42.35;;
20012;SDS011;76844;42.852;23.042;2024-03-02T04:43:01;79.28;;;43.28;;
20012;SDS011;76844;42.852;23.042;2024-03-02T04:45:30;69.93;;;43.08;;
20012;SDS011;76844;42.852;23.042;2024-03-02T04:48:00;65.95;;;39.05;;
20012;SDS011;76844;42.852;23.042;2024-03-02T04:50:31;77.63;;;43.15;;
20012;SDS011;76844;42.852;23.042;2024-03-02T04:53:01;84.57;;;45.63;;
20012;SDS011;76844;42.852;23.042;2024-03-02T04:55:31;78.32;;;45.13;;
20012;SDS011;76844;42.852;23.042;2024-03-02T04:58:17;76.07;;;41.50;;
20012;SDS011;76844;42.852;23.042;2024-03-02T05:00:46;78.72;;;44.63;;
20012;SDS011;76844;42.852;23.042;2024-03-02T05:03:16;73.30;;;41.85;;
20012;SDS011;76844;42.852;23.042;2024-03-02T05:05:47;74.13;;;42.13;;
20012;SDS011;76844;42.852;23.042;2024-03-02T05:08:16;64.50;;;37.47;;
20012;SDS011;76844;42.852;23.042;2024-03-02T05:10:45;70.75;;;39.20;;
20012;SDS011;76844;42.852;23.042;2024-03-02T05:13:14;72.60;;;40.97;;
20012;SDS011;76844;42.852;23.042;2024-03-02T05:15:44;70.22;;;41.17;;
20012;SDS011;76844;42.852;23.042;2024-03-02T05:18:14;66.28;;;38.35;;
20012;SDS011;76844;42.852;23.042;2024-03-02T05:20:43;119.63;;;56.78;;
20012;SDS011;76844;42.852;23.042;2024-03-02T05:23:14;89.53;;;47.08;;
20012;SDS011;76844;42.852;23.042;2024-03-02T05:25:44;68.40;;;38.38;;
20012;SDS011;76844;42.852;23.042;2024-03-02T05:28:13;78.95;;;40.80;;
20012;SDS011;76844;42.852;23.042;2024-03-02T05:30:42;61.78;;;34.50;;
20012;SDS011;76844;42.852;23.042;2024-03-02T05:33:12;72.28;;;39.10;;
20012;SDS011;76844;42.852;23.042;2024-03-02T05:36:03;80.28;;;41.47;;
20012;SDS011;76844;42.852;23.042;2024-03-02T05:38:35;75.65;;;40.47;;
20012;SDS011;76844;42.852;23.042;2024-03-02T05:41:05;72.47;;;41.57;;
20012;SDS011;76844;42.852;23.042;2024-03-02T05:43:34;85.13;;;45.75;;
20012;SDS011;76844;42.852;23.042;2024-03-02T05:46:04;181.68;;;85.65;;
20012;SDS011;76844;42.852;23.042;2024-03-02T05:48:34;113.57;;;62.42;;
20012;SDS011;76844;42.852;23.042;2024-03-02T05:51:03;135.45;;;64.93;;
20012;SDS011;76844;42.852;23.042;2024-03-02T05:53:33;88.43;;;46.95;;
20012;SDS011;76844;42.852;23.042;2024-03-02T05:56:06;90.68;;;47.05;;
20012;SDS011;76844;42.852;23.042;2024-03-02T05:58:36;77.45;;;43.35;;
20012;SDS011;76844;42.852;23.042;2024-03-02T06:01:20;71.60;;;41.30;;
20012;SDS011;76844;42.852;23.042;2024-03-02T06:03:55;67.78;;;38.17;;
20012;SDS011;76844;42.852;23.042;2024-03-02T06:06:26;55.10;;;32.30;;
20012;SDS011;76844;42.852;23.042;2024-03-02T06:08:55;84.90;;;46.88;;
20012;SDS011;76844;42.852;23.042;2024-03-02T06:11:27;78.85;;;45.00;;
20012;SDS011;76844;42.852;23.042;2024-03-02T06:13:56;76.47;;;42.75;;
20012;SDS011;76844;42.852;23.042;2024-03-02T06:16:25;65.05;;;37.42;;
20012;SDS011;76844;42.852;23.042;2024-03-02T06:18:55;70.35;;;36.85;;
20012;SDS011;76844;42.852;23.042;2024-03-02T06:21:28;70.25;;;38.30;;
20012;SDS011;76844;42.852;23.042;2024-03-02T06:23:57;69.47;;;36.85;;
20012;SDS011;76844;42.852;23.042;2024-03-02T06:26:29;73.35;;;38.78;;
20012;SDS011;76844;42.852;23.042;2024-03-02T06:28:59;64.78;;;38.05;;
20012;SDS011;76844;42.852;23.042;2024-03-02T06:31:29;64.78;;;35.72;;
20012;SDS011;76844;42.852;23.042;2024-03-02T06:33:59;71.22;;;38.28;;
20012;SDS011;76844;42.852;23.042;2024-03-02T06:36:28;65.50;;;35.83;;
20012;SDS011;76844;42.852;23.042;2024-03-02T06:38:57;69.68;;;37.88;;
20012;SDS011;76844;42.852;23.042;2024-03-02T06:41:27;63.92;;;34.92;;
20012;SDS011;76844;42.852;23.042;2024-03-02T06:43:57;66.38;;;35.45;;
20012;SDS011;76844;42.852;23.042;2024-03-02T06:46:27;67.85;;;35.58;;
20012;SDS011;76844;42.852;23.042;2024-03-02T06:48:57;74.47;;;37.97;;
20012;SDS011;76844;42.852;23.042;2024-03-02T06:51:26;68.47;;;38.00;;
20012;SDS011;76844;42.852;23.042;2024-03-02T06:53:56;69.00;;;37.60;;
20012;SDS011;76844;42.852;23.042;2024-03-02T06:56:25;70.13;;;37.22;;
20012;SDS011;76844;42.852;23.042;2024-03-02T06:58:54;75.15;;;38.30;;
20012;SDS011;76844;42.852;23.042;2024-03-02T07:01:25;64.25;;;34.75;;
20012;SDS011;76844;42.852;23.042;2024-03-02T07:03:55;73.97;;;40.08;;
20012;SDS011;76844;42.852;23.042;2024-03-02T07:06:24;72.50;;;38.65;;
20012;SDS011;76844;42.852;23.042;2024-03-02T07:08:54;77.97;;;39.03;;
20012;SDS011;76844;42.852;23.042;2024-03-02T07:11:23;74.38;;;41.30;;
20012;SDS011;76844;42.852;23.042;2024-03-02T07:13:52;72.63;;;37.80;;
20012;SDS011;76844;42.852;23.042;2024-03-02T07:16:22;76.85;;;38.67;;
20012;SDS011;76844;42.852;23.042;2024-03-02T07:18:56;77.68;;;39.67;;
20012;SDS011;76844;42.852;23.042;2024-03-02T07:21:26;71.78;;;37.97;;
20012;SDS011;76844;42.852;23.042;2024-03-02T07:23:56;75.00;;;39.72;;
20012;SDS011;76844;42.852;23.042;2024-03-02T07:26:26;71.25;;;37.40;;
20012;SDS011;76844;42.852;23.042;2024-03-02T07:28:58;67.47;;;35.05;;
20012;SDS011;76844;42.852;23.042;2024-03-02T07:31:28;61.38;;;34.42;;
20012;SDS011;76844;42.852;23.042;2024-03-02T07:33:58;64.88;;;35.78;;
20012;SDS011;76844;42.852;23.042;2024-03-02T07:36:29;61.92;;;32.85;;
20012;SDS011;76844;42.852;23.042;2024-03-02T07:38:58;68.97;;;36.17;;
20012;SDS011;76844;42.852;23.042;2024-03-02T07:41:27;62.03;;;33.28;;
20012;SDS011;76844;42.852;23.042;2024-03-02T07:43:57;66.45;;;35.35;;
20012;SDS011;76844;42.852;23.042;2024-03-02T07:46:26;64.95;;;34.08;;
20012;SDS011;76844;42.852;23.042;2024-03-02T07:48:56;57.40;;;31.48;;
20012;SDS011;76844;42.852;23.042;2024-03-02T07:51:27;72.18;;;36.15;;
20012;SDS011;76844;42.852;23.042;2024-03-02T07:53:57;60.13;;;32.63;;
20012;SDS011;76844;42.852;23.042;2024-03-02T07:56:26;72.43;;;37.05;;
20012;SDS011;76844;42.852;23.042;2024-03-02T07:58:55;68.10;;;36.05;;
20012;SDS011;76844;42.852;23.042;2024-03-02T08:01:28;77.45;;;38.10;;
20012;SDS011;76844;42.852;23.042;2024-03-02T08:03:58;65.25;;;35.05;;
20012;SDS011;76844;42.852;23.042;2024-03-02T08:06:30;61.45;;;33.40;;
20012;SDS011;76844;42.852;23.042;2024-03-02T08:09:00;68.25;;;35.50;;
20012;SDS011;76844;42.852;23.042;2024-03-02T08:11:31;64.95;;;33.42;;
20012;SDS011;76844;42.852;23.042;2024-03-02T08:14:02;62.47;;;32.65;;
20012;SDS011;76844;42.852;23.042;2024-03-02T08:16:31;71.72;;;37.55;;
20012;SDS011;76844;42.852;23.042;2024-03-02T08:19:01;66.45;;;35.20;;
20012;SDS011;76844;42.852;23.042;2024-03-02T08:21:32;75.57;;;37.22;;
20012;SDS011;76844;42.852;23.042;2024-03-02T08:24:02;74.75;;;39.88;;
20012;SDS011;76844;42.852;23.042;2024-03-02T08:26:33;64.28;;;34.28;;
20012;SDS011;76844;42.852;23.042;2024-03-02T08:29:02;85.15;;;42.38;;
20012;SDS011;76844;42.852;23.042;2024-03-02T08:31:32;98.05;;;43.28;;
20012;SDS011;76844;42.852;23.042;2024-03-02T08:34:04;74.72;;;34.05;;
20012;SDS011;76844;42.852;23.042;2024-03-02T08:36:35;81.07;;;33.35;;
20012;SDS011;76844;42.852;23.042;2024-03-02T08:39:05;85.13;;;38.10;;
20012;SDS011;76844;42.852;23.042;2024-03-02T08:41:43;72.07;;;34.47;;
20012;SDS011;76844;42.852;23.042;2024-03-02T08:44:14;65.45;;;33.40;;
20012;SDS011;76844;42.852;23.042;2024-03-02T08:46:44;53.08;;;29.23;;
20012;SDS011;76844;42.852;23.042;2024-03-02T08:49:13;51.95;;;29.25;;
20012;SDS011;76844;42.852;23.042;2024-03-02T08:51:45;51.55;;;28.75;;
20012;SDS011;76844;42.852;23.042;2024-03-02T08:54:22;53.28;;;30.38;;
20012;SDS011;76844;42.852;23.042;2024-03-02T08:56:52;72.70;;;36.28;;
20012;SDS011;76844;42.852;23.042;2024-03-02T08:59:21;51.17;;;27.98;;
20012;SDS011;76844;42.852;23.042;2024-03-02T09:01:52;57.60;;;31.10;;
20012;SDS011;76844;42.852;23.042;2024-03-02T09:04:22;49.90;;;28.00;;
20012;SDS011;76844;42.852;23.042;2024-03-02T09:06:55;45.38;;;26.73;;
20012;SDS011;76844;42.852;23.042;2024-03-02T09:09:25;53.22;;;29.77;;
20012;SDS011;76844;42.852;23.042;2024-03-02T09:11:54;44.83;;;27.80;;
20012;SDS011;76844;42.852;23.042;2024-03-02T09:14:25;54.13;;;31.58;;
20012;SDS011;76844;42.852;23.042;2024-03-02T09:16:54;51.42;;;29.52;;
20012;SDS011;76844;42.852;23.042;2024-03-02T09:19:24;49.15;;;28.85;;
20012;SDS011;76844;42.852;23.042;2024-03-02T09:21:53;51.65;;;29.08;;
20012;SDS011;76844;42.852;23.042;2024-03-02T09:24:26;54.95;;;29.98;;
20012;SDS011;76844;42.852;23.042;2024-03-02T09:26:55;51.55;;;28.80;;
20012;SDS011;76844;42.852;23.042;2024-03-02T09:29:25;53.28;;;30.38;;
20012;SDS011;76844;42.852;23.042;2024-03-02T09:31:55;53.72;;;31.85;;
20012;SDS011;76844;42.852;23.042;2024-03-02T09:34:25;60.30;;;32.92;;
20012;SDS011;76844;42.852;23.042;2024-03-02T09:36:56;51.22;;;28.83;;
20012;SDS011;76844;42.852;23.042;2024-03-02T09:39:25;48.25;;;28.48;;
20012;SDS011;76844;42.852;23.042;2024-03-02T09:41:55;52.50;;;29.95;;
20012;SDS011;76844;42.852;23.042;2024-03-02T09:44:24;52.10;;;30.35;;
20012;SDS011;76844;42.852;23.042;2024-03-02T09:46:54;54.10;;;30.48;;
20012;SDS011;76844;42.852;23.042;2024-03-02T09:49:24;45.22;;;26.52;;
20012;SDS011;76844;42.852;23.042;2024-03-02T09:51:54;51.33;;;29.40;;
20012;SDS011;76844;42.852;23.042;2024-03-02T09:54:25;49.45;;;28.90;;
20012;SDS011;76844;42.852;23.042;2024-03-02T09:56:56;53.15;;;30.25;;
20012;SDS011;76844;42.852;23.042;2024-03-02T09:59:25;53.28;;;30.35;;
20012;SDS011;76844;42.852;23.042;2024-03-02T10:01:55;51.63;;;28.58;;
20012;SDS011;76844;42.852;23.042;2024-03-02T10:04:27;51.45;;;30.10;;
20012;SDS011;76844;42.852;23.042;2024-03-02T10:07:12;48.33;;;29.27;;
20012;SDS011;76844;42.852;23.042;2024-03-02T10:09:43;47.10;;;28.65;;
20012;SDS011;76844;42.852;23.042;2024-03-02T10:12:15;49.45;;;28.23;;
20012;SDS011;76844;42.852;23.042;2024-03-02T10:14:46;48.47;;;29.45;;
20012;SDS011;76844;42.852;23.042;2024-03-02T10:17:18;46.60;;;28.20;;
20012;SDS011;76844;42.852;23.042;2024-03-02T10:19:48;52.47;;;30.67;;
20012;SDS011;76844;42.852;23.042;2024-03-02T10:22:19;49.85;;;30.88;;
20012;SDS011;76844;42.852;23.042;2024-03-02T10:24:54;40.97;;;25.90;;
20012;SDS011;76844;42.852;23.042;2024-03-02T10:27:26;47.78;;;28.95;;
20012;SDS011;76844;42.852;23.042;2024-03-02T10:29:57;45.90;;;28.80;;
20012;SDS011;76844;42.852;23.042;2024-03-02T10:32:29;46.60;;;30.37;;
20012;SDS011;76844;42.852;23.042;2024-03-02T10:34:58;52.38;;;31.67;;
20012;SDS011;76844;42.852;23.042;2024-03-02T10:37:30;42.70;;;27.98;;
20012;SDS011;76844;42.852;23.042;2024-03-02T10:40:04;44.65;;;29.17;;
20012;SDS011;76844;42.852;23.042;2024-03-02T10:42:35;43.92;;;27.48;;
20012;SDS011;76844;42.852;23.042;2024-03-02T10:45:06;39.70;;;25.73;;
20012;SDS011;76844;42.852;23.042;2024-03-02T10:47:38;43.47;;;27.77;;
20012;SDS011;76844;42.852;23.042;2024-03-02T10:50:07;48.50;;;29.95;;
20012;SDS011;76844;42.852;23.042;2024-03-02T10:52:38;43.75;;;28.42;;
20012;SDS011;76844;42.852;23.042;2024-03-02T10:55:09;38.88;;;26.65;;
20012;SDS011;76844;42.852;23.042;2024-03-02T10:57:41;44.10;;;29.15;;
20012;SDS011;76844;42.852;23.042;2024-03-02T11:00:15;38.13;;;25.95;;
20012;SDS011;76844;42.852;23.042;2024-03-02T11:02:49;41.58;;;28.20;;
20012;SDS011;76844;42.852;23.042;2024-03-02T11:05:23;41.13;;;26.13;;
20012;SDS011;76844;42.852;23.042;2024-03-02T11:08:00;39.50;;;26.25;;
20012;SDS011;76844;42.852;23.042;2024-03-02T11:10:34;39.25;;;25.73;;
20012;SDS011;76844;42.852;23.042;2024-03-02T11:13:05;35.50;;;24.83;;
20012;SDS011;76844;42.852;23.042;2024-03-02T11:15:37;36.80;;;25.42;;
20012;SDS011;76844;42.852;23.042;2024-03-02T11:18:11;39.72;;;26.10;;
20012;SDS011;76844;42.852;23.042;2024-03-02T11:20:41;37.00;;;24.92;;
20012;SDS011;76844;42.852;23.042;2024-03-02T11:23:13;38.28;;;25.77;;
20012;SDS011;76844;42.852;23.042;2024-03-02T11:25:43;43.42;;;29.25;;
20012;SDS011;76844;42.852;23.042;2024-03-02T11:28:14;52.97;;;36.83;;
20012;SDS011;76844;42.852;23.042;2024-03-02T11:30:50;34.53;;;23.13;;
20012;SDS011;76844;42.852;23.042;2024-03-02T11:33:23;51.00;;;36.22;;
20012;SDS011;76844;42.852;23.042;2024-03-02T11:35:57;39.05;;;29.05;;
20012;SDS011;76844;42.852;23.042;2024-03-02T11:38:32;35.35;;;24.55;;
20012;SDS011;76844;42.852;23.042;2024-03-02T11:41:03;34.42;;;23.42;;
20012;SDS011;76844;42.852;23.042;2024-03-02T11:43:39;37.30;;;26.10;;
20012;SDS011;76844;42.852;23.042;2024-03-02T11:46:11;33.83;;;23.75;;
20012;SDS011;76844;42.852;23.042;2024-03-02T11:48:41;46.58;;;32.80;;
20012;SDS011;76844;42.852;23.042;2024-03-02T11:51:11;36.05;;;24.02;;
20012;SDS011;76844;42.852;23.042;2024-03-02T11:53:43;42.03;;;28.25;;
20012;SDS011;76844;42.852;23.042;2024-03-02T11:56:15;36.58;;;26.13;;
20012;SDS011;76844;42.852;23.042;2024-03-02T11:58:47;37.15;;;25.75;;
20012;SDS011;76844;42.852;23.042;2024-03-02T12:01:19;34.60;;;24.35;;
20012;SDS011;76844;42.852;23.042;2024-03-02T12:03:49;38.55;;;26.52;;
20012;SDS011;76844;42.852;23.042;2024-03-02T12:06:22;35.20;;;23.98;;
20012;SDS011;76844;42.852;23.042;2024-03-02T12:08:53;35.30;;;24.70;;
20012;SDS011;76844;42.852;23.042;2024-03-02T12:11:23;34.33;;;23.80;;
20012;SDS011;76844;42.852;23.042;2024-03-02T12:13:52;39.00;;;27.15;;
20012;SDS011;76844;42.852;23.042;2024-03-02T12:16:23;39.85;;;27.05;;
20012;SDS011;76844;42.852;23.042;2024-03-02T12:18:54;40.65;;;27.55;;
20012;SDS011;76844;42.852;23.042;2024-03-02T12:21:24;34.28;;;23.73;;
20012;SDS011;76844;42.852;23.042;2024-03-02T12:23:56;39.47;;;28.20;;
20012;SDS011;76844;42.852;23.042;2024-03-02T12:26:26;43.63;;;31.97;;
20012;SDS011;76844;42.852;23.042;2024-03-02T12:28:56;39.40;;;27.88;;
20012;SDS011;76844;42.852;23.042;2024-03-02T12:31:26;33.95;;;24.35;;
20012;SDS011;76844;42.852;23.042;2024-03-02T12:33:56;37.03;;;25.00;;
20012;SDS011;76844;42.852;23.042;2024-03-02T12:36:27;37.95;;;26.02;;
20012;SDS011;76844;42.852;23.042;2024-03-02T12:38:57;35.88;;;26.23;;
20012;SDS011;76844;42.852;23.042;2024-03-02T12:41:27;35.28;;;24.92;;
20012;SDS011;76844;42.852;23.042;2024-03-02T12:43:58;37.85;;;26.15;;
20012;SDS011;76844;42.852;23.042;2024-03-02T12:46:27;41.70;;;28.75;;
20012;SDS011;76844;42.852;23.042;2024-03-02T12:48:57;32.92;;;23.65;;
20012;SDS011;76844;42.852;23.042;2024-03-02T12:51:28;40.28;;;28.02;;
20012;SDS011;76844;42.852;23.042;2024-03-02T12:53:59;35.72;;;24.48;;
20012;SDS011;76844;42.852;23.042;2024-03-02T12:56:29;37.42;;;25.40;;
20012;SDS011;76844;42.852;23.042;2024-03-02T12:58:58;35.03;;;23.67;;
20012;SDS011;76844;42.852;23.042;2024-03-02T13:01:28;37.22;;;24.17;;
20012;SDS011;76844;42.852;23.042;2024-03-02T13:03:58;38.03;;;25.58;;
20012;SDS011;76844;42.852;23.042;2024-03-02T13:06:28;34.85;;;23.80;;
20012;SDS011;76844;42.852;23.042;2024-03-02T13:08:58;35.38;;;24.20;;
20012;SDS011;76844;42.852;23.042;2024-03-02T13:11:31;32.22;;;21.17;;
20012;SDS011;76844;42.852;23.042;2024-03-02T13:14:00;33.65;;;23.88;;
20012;SDS011;76844;42.852;23.042;2024-03-02T13:16:30;35.30;;;25.17;;
20012;SDS011;76844;42.852;23.042;2024-03-02T13:19:12;36.20;;;23.50;;
20012;SDS011;76844;42.852;23.042;2024-03-02T13:21:41;34.22;;;23.20;;
20012;SDS011;76844;42.852;23.042;2024-03-02T13:24:12;33.70;;;23.40;;
20012;SDS011;76844;42.852;23.042;2024-03-02T13:26:42;36.25;;;24.85;;
20012;SDS011;76844;42.852;23.042;2024-03-02T13:29:11;33.65;;;24.02;;
20012;SDS011;76844;42.852;23.042;2024-03-02T13:31:40;32.80;;;22.60;;
20012;SDS011;76844;42.852;23.042;2024-03-02T13:34:10;38.15;;;24.33;;
20012;SDS011;76844;42.852;23.042;2024-03-02T13:36:39;36.75;;;25.15;;
20012;SDS011;76844;42.852;23.042;2024-03-02T13:39:09;51.78;;;33.70;;
20012;SDS011;76844;42.852;23.042;2024-03-02T13:41:39;38.58;;;26.15;;
20012;SDS011;76844;42.852;23.042;2024-03-02T13:44:09;37.42;;;24.48;;
20012;SDS011;76844;42.852;23.042;2024-03-02T13:46:38;37.78;;;25.88;;
20012;SDS011;76844;42.852;23.042;2024-03-02T13:49:07;32.15;;;24.15;;
20012;SDS011;76844;42.852;23.042;2024-03-02T13:51:37;36.40;;;25.08;;
20012;SDS011;76844;42.852;23.042;2024-03-02T13:54:09;35.85;;;25.63;;
20012;SDS011;76844;42.852;23.042;2024-03-02T13:56:40;36.75;;;23.73;;
20012;SDS011;76844;42.852;23.042;2024-03-02T13:59:09;31.55;;;22.27;;
20012;SDS011;76844;42.852;23.042;2024-03-02T14:01:38;35.75;;;25.02;;
20012;SDS011;76844;42.852;23.042;2024-03-02T14:04:08;39.20;;;25.75;;
20012;SDS011;76844;42.852;23.042;2024-03-02T14:06:37;39.22;;;26.48;;
20012;SDS011;76844;42.852;23.042;2024-03-02T14:09:07;45.60;;;29.80;;
20012;SDS011;76844;42.852;23.042;2024-03-02T14:11:36;40.22;;;26.92;;
20012;SDS011;76844;42.852;23.042;2024-03-02T14:14:10;38.83;;;25.73;;
20012;SDS011;76844;42.852;23.042;2024-03-02T14:16:39;58.47;;;41.78;;
20012;SDS011;76844;42.852;23.042;2024-03-02T14:19:08;48.88;;;31.95;;
20012;SDS011;76844;42.852;23.042;2024-03-02T14:21:38;41.22;;;28.55;;
20012;SDS011;76844;42.852;23.042;2024-03-02T14:24:08;53.83;;;36.13;;
20012;SDS011;76844;42.852;23.042;2024-03-02T14:26:37;46.67;;;31.60;;
20012;SDS011;76844;42.852;23.042;2024-03-02T14:29:08;40.22;;;27.35;;